createdAt,value
2018-09-01T00:00:56.897Z,100923.25
2018-09-01T00:03:26.419Z,100932.63
2018-09-01T00:05:55.579Z,100931.05
2018-09-01T00:08:25.537Z,100927.17
2018-09-01T00:10:54.927Z,100933.98
2018-09-01T00:13:24.425Z,100945.84
2018-09-01T00:15:54.744Z,100944.11
2018-09-01T00:18:24.360Z,100951.91
2018-09-01T00:20:53.058Z,100947.93
2018-09-01T00:23:21.859Z,100945.27
2018-09-01T00:25:51.462Z,100948.14
2018-09-01T00:28:20.225Z,100944.12
2018-09-01T00:33:41.756Z,100933.92
2018-09-01T00:36:11.574Z,100920.83
2018-09-01T00:38:45.596Z,100914.17
2018-09-01T00:41:27.886Z,100916.78
2018-09-01T00:43:56.622Z,100917.26
2018-09-01T00:46:25.368Z,100918.64
2018-09-01T00:48:53.989Z,100929.66
2018-09-01T00:51:24.063Z,100928.41
2018-09-01T00:53:52.749Z,100927.86
2018-09-01T00:56:21.326Z,100923.56
2018-09-01T00:58:49.905Z,100927.81
2018-09-01T01:04:16.137Z,100927.68
2018-09-01T01:06:44.579Z,100929.11
2018-09-01T01:09:13.051Z,100936.89
2018-09-01T01:11:41.711Z,100944.67
2018-09-01T01:14:10.540Z,100931.83
2018-09-01T01:16:39.028Z,100930.72
2018-09-01T01:19:07.489Z,100941.43
2018-09-01T01:21:54.707Z,100947.05
2018-09-01T01:24:23.167Z,100942.20
2018-09-01T01:26:54.955Z,100935.29
2018-09-01T01:29:24.051Z,100936.67
2018-09-01T01:31:53.141Z,100945.84
2018-09-01T01:34:22.029Z,100951.45
2018-09-01T01:36:51.099Z,100951.20
2018-09-01T01:39:20.572Z,100959.83
2018-09-01T01:41:49.690Z,100964.41
2018-09-01T01:44:18.967Z,100965.44
2018-09-01T01:46:47.609Z,100953.13
2018-09-01T01:49:15.973Z,100954.95
2018-09-01T01:51:54.069Z,100959.31
2018-09-01T01:54:22.499Z,100962.33
2018-09-01T01:56:50.967Z,100959.82
2018-09-01T01:59:19.461Z,100954.55
2018-09-01T02:01:47.953Z,100956.86
2018-09-01T02:04:16.577Z,100957.16
2018-09-01T02:06:45.032Z,100956.13
2018-09-01T02:09:13.591Z,100952.23
2018-09-01T02:11:42.017Z,100958.20
2018-09-01T02:14:10.533Z,100956.02
2018-09-01T02:16:40.089Z,100955.38
2018-09-01T02:19:08.419Z,100952.37
2018-09-01T02:21:36.963Z,100949.98
2018-09-01T02:24:05.637Z,100955.13
2018-09-01T02:26:34.115Z,100957.62
2018-09-01T02:29:02.705Z,100952.15
2018-09-01T02:31:31.836Z,100950.82
2018-09-01T02:34:02.544Z,100958.06
2018-09-01T02:36:31.137Z,100965.84
2018-09-01T02:38:59.623Z,100967.73
2018-09-01T02:41:29.070Z,100956.73
2018-09-01T02:43:59.427Z,100955.50
2018-09-01T02:46:27.907Z,100961.93
2018-09-01T02:48:56.388Z,100964.64
2018-09-01T02:51:24.793Z,100964.41
2018-09-01T02:53:53.656Z,100960.70
2018-09-01T02:56:22.202Z,100955.16
2018-09-01T02:58:50.839Z,100955.42
2018-09-01T03:01:24.484Z,100954.34
2018-09-01T03:03:52.950Z,100953.45
2018-09-01T03:06:21.435Z,100950.19
2018-09-01T03:08:49.879Z,100951.82
2018-09-01T03:11:18.670Z,100955.84
2018-09-01T03:13:47.215Z,100958.58
2018-09-01T03:16:15.720Z,100960.51
2018-09-01T03:18:44.201Z,100962.69
2018-09-01T03:21:17.738Z,100956.01
2018-09-01T03:23:46.307Z,100961.39
2018-09-01T03:26:14.790Z,100959.73
2018-09-01T03:28:43.407Z,100960.34
2018-09-01T03:34:11.654Z,100952.03
2018-09-01T03:36:40.051Z,100958.91
2018-09-01T03:39:09.319Z,100956.62
2018-09-01T03:41:38.435Z,100961.97
2018-09-01T03:44:06.919Z,100954.53
2018-09-01T03:46:35.371Z,100952.19
2018-09-01T03:49:05.453Z,100952.67
2018-09-01T03:51:33.931Z,100952.19
2018-09-01T03:54:03.633Z,100955.87
2018-09-01T03:56:32.098Z,100957.80
2018-09-01T03:59:00.582Z,100957.24
2018-09-01T04:01:29.037Z,100966.97
2018-09-01T04:03:57.471Z,100958.98
2018-09-01T04:06:26.033Z,100967.59
2018-09-01T04:08:54.535Z,100972.19
2018-09-01T04:11:23.116Z,100975.16
2018-09-01T04:13:51.516Z,100983.27
2018-09-01T04:16:19.931Z,100980.95
2018-09-01T04:18:48.765Z,100991.97
2018-09-01T04:21:18.250Z,101000.77
2018-09-01T04:23:46.797Z,101001.34
2018-09-01T04:26:15.271Z,100999.75
2018-09-01T04:28:43.716Z,100999.72
2018-09-01T04:31:12.570Z,101002.89
2018-09-01T04:33:41.052Z,101004.75
2018-09-01T04:36:10.354Z,101002.37
2018-09-01T04:38:38.886Z,101011.63
2018-09-01T04:41:07.413Z,101022.36
2018-09-01T04:43:36.010Z,101016.23
2018-09-01T04:46:04.594Z,101011.31
2018-09-01T04:48:33.130Z,101019.39
2018-09-01T04:51:01.680Z,101020.37
2018-09-01T04:53:30.045Z,101025.17
2018-09-01T04:55:58.482Z,101028.87
2018-09-01T04:58:26.885Z,101030.75
2018-09-01T05:04:11.326Z,101039.59
2018-09-01T05:06:39.747Z,101044.61
2018-09-01T05:09:08.197Z,101049.94
2018-09-01T05:11:37.253Z,101045.45
2018-09-01T05:14:05.765Z,101046.97
2018-09-01T05:16:34.393Z,101042.88
2018-09-01T05:19:02.910Z,101038.05
2018-09-01T05:21:31.342Z,101044.97
2018-09-01T05:23:59.868Z,101048.43
2018-09-01T05:26:28.209Z,101047.06
2018-09-01T05:28:56.689Z,101054.91
2018-09-01T05:31:38.856Z,101046.45
2018-09-01T05:34:07.462Z,101044.35
2018-09-01T05:36:36.283Z,101046.50
2018-09-01T05:39:07.470Z,101048.59
2018-09-01T05:41:35.927Z,101050.02
2018-09-01T05:44:04.368Z,101053.24
2018-09-01T05:46:32.873Z,101056.72
2018-09-01T05:49:01.363Z,101054.63
2018-09-01T05:51:29.980Z,101057.80
2018-09-01T05:53:58.459Z,101059.84
2018-09-01T05:56:26.960Z,101058.69
2018-09-01T05:58:55.578Z,101058.66
2018-09-01T06:04:17.008Z,101061.62
2018-09-01T06:06:45.585Z,101060.55
2018-09-01T06:09:14.602Z,101068.05
2018-09-01T06:11:43.903Z,101071.53
2018-09-01T06:14:12.445Z,101071.32
2018-09-01T06:16:41.057Z,101069.47
2018-09-01T06:19:09.868Z,101071.09
2018-09-01T06:21:38.343Z,101066.52
2018-09-01T06:24:07.979Z,101070.75
2018-09-01T06:26:36.471Z,101070.72
2018-09-01T06:29:09.969Z,101067.28
2018-09-01T06:31:39.735Z,101071.30
2018-09-01T06:34:08.227Z,101075.02
2018-09-01T06:36:36.671Z,101069.93
2018-09-01T06:39:06.663Z,101074.44
2018-09-01T06:41:35.096Z,101076.06
2018-09-01T06:44:04.673Z,101070.45
2018-09-01T06:46:33.147Z,101077.84
2018-09-01T06:49:02.311Z,101080.48
2018-09-01T06:51:30.907Z,101075.34
2018-09-01T06:53:59.341Z,101080.66
2018-09-01T06:56:28.099Z,101082.98
2018-09-01T06:58:57.787Z,101084.33
2018-09-01T07:01:26.375Z,101087.75
2018-09-01T07:03:54.951Z,101078.10
2018-09-01T07:06:23.385Z,101084.73
2018-09-01T07:08:51.942Z,101088.97
2018-09-01T07:11:20.655Z,101091.09
2018-09-01T07:13:49.283Z,101095.83
2018-09-01T07:16:17.783Z,101099.55
2018-09-01T07:18:46.334Z,101102.98
2018-09-01T07:21:14.842Z,101106.89
2018-09-01T07:23:43.250Z,101111.04
2018-09-01T07:26:11.813Z,101113.09
2018-09-01T07:28:40.375Z,101108.45
2018-09-01T07:31:09.158Z,101104.41
2018-09-01T07:33:37.373Z,101108.09
2018-09-01T07:36:05.859Z,101109.02
2018-09-01T07:38:34.367Z,101114.79
2018-09-01T07:41:02.899Z,101110.70
2018-09-01T07:43:31.457Z,101108.24
2018-09-01T07:45:59.949Z,101110.06
2018-09-01T07:48:28.539Z,101113.78
2018-09-01T07:50:57.161Z,101117.17
2018-09-01T07:53:25.847Z,101117.83
2018-09-01T07:55:54.409Z,101119.23
2018-09-01T07:58:22.971Z,101117.80
2018-09-01T08:00:51.464Z,101119.05
2018-09-01T08:03:19.973Z,101118.66
2018-09-01T08:05:48.475Z,101123.11
2018-09-01T08:08:17.060Z,101127.53
2018-09-01T08:10:49.612Z,101126.61
2018-09-01T08:13:18.173Z,101128.86
2018-09-01T08:15:46.997Z,101132.44
2018-09-01T08:18:15.469Z,101129.88
2018-09-01T08:20:44.121Z,101135.93
2018-09-01T08:23:12.639Z,101138.87
2018-09-01T08:25:41.225Z,101136.23
2018-09-01T08:28:09.790Z,101143.72
2018-09-01T08:30:38.420Z,101144.14
2018-09-01T08:33:06.961Z,101147.72
2018-09-01T08:35:35.560Z,101151.80
2018-09-01T08:38:04.083Z,101151.27
2018-09-01T08:40:32.762Z,101150.13
2018-09-01T08:43:01.279Z,101151.22
2018-09-01T08:45:30.011Z,101145.69
2018-09-01T08:47:58.303Z,101138.70
2018-09-01T08:50:26.910Z,101142.30
2018-09-01T08:52:55.496Z,101132.92
2018-09-01T08:55:24.503Z,101138.52
2018-09-01T08:57:53.025Z,101122.66
2018-09-01T09:00:21.564Z,101119.23
2018-09-01T09:02:50.050Z,101131.00
2018-09-01T09:05:18.617Z,101124.69
2018-09-01T09:07:47.077Z,101115.77
2018-09-01T09:10:15.657Z,101115.13
2018-09-01T09:12:44.140Z,101121.02
2018-09-01T09:15:12.614Z,101117.73
2018-09-01T09:17:41.139Z,101115.33
2018-09-01T09:20:09.546Z,101104.92
2018-09-01T09:22:38.001Z,101112.75
2018-09-01T09:25:06.604Z,101115.81
2018-09-01T09:27:35.099Z,101110.73
2018-09-01T09:30:03.638Z,101110.49
2018-09-01T09:32:32.602Z,101115.75
2018-09-01T09:35:01.234Z,101110.14
2018-09-01T09:37:29.771Z,101112.13
2018-09-01T09:39:58.287Z,101112.94
2018-09-01T09:42:26.888Z,101114.13
2018-09-01T09:44:55.456Z,101110.25
2018-09-01T09:47:24.332Z,101103.96
2018-09-01T09:49:52.819Z,101105.55
2018-09-01T09:52:21.484Z,101098.03
2018-09-01T09:54:50.227Z,101104.69
2018-09-01T09:57:19.898Z,101105.30
2018-09-01T09:59:48.526Z,101108.86
2018-09-01T10:02:17.075Z,101103.33
2018-09-01T10:04:45.557Z,101101.42
2018-09-01T10:07:14.039Z,101096.19
2018-09-01T10:09:42.448Z,101101.44
2018-09-01T10:12:10.980Z,101106.62
2018-09-01T10:14:39.823Z,101097.28
2018-09-01T10:17:08.307Z,101100.86
2018-09-01T10:19:37.093Z,101096.34
2018-09-01T10:22:05.571Z,101098.09
2018-09-01T10:24:34.118Z,101090.78
2018-09-01T10:27:02.718Z,101091.77
2018-09-01T10:29:31.462Z,101084.36
2018-09-01T10:31:59.967Z,101071.48
2018-09-01T10:34:28.579Z,101077.14
2018-09-01T10:36:57.134Z,101074.80
2018-09-01T10:39:25.706Z,101077.94
2018-09-01T10:41:54.282Z,101078.76
2018-09-01T10:44:22.795Z,101079.47
2018-09-01T10:46:51.246Z,101076.91
2018-09-01T10:49:19.853Z,101069.65
2018-09-01T10:51:48.511Z,101078.69
2018-09-01T10:54:17.320Z,101070.61
2018-09-01T10:56:45.773Z,101071.61
2018-09-01T10:59:14.463Z,101075.39
2018-09-01T11:01:42.794Z,101070.92
2018-09-01T11:04:11.168Z,101063.55
2018-09-01T11:06:39.712Z,101062.34
2018-09-01T11:09:09.539Z,101070.09
2018-09-01T11:11:47.454Z,101058.23
2018-09-01T11:14:15.880Z,101055.02
2018-09-01T11:16:44.422Z,101057.00
2018-09-01T11:19:12.843Z,101058.09
2018-09-01T11:21:41.298Z,101047.18
2018-09-01T11:24:09.874Z,101056.92
2018-09-01T11:26:38.398Z,101053.70
2018-09-01T11:29:08.275Z,101058.14
2018-09-01T11:31:37.042Z,101059.38
2018-09-01T11:34:05.811Z,101062.38
2018-09-01T11:36:35.029Z,101061.34
2018-09-01T11:39:04.475Z,101056.33
2018-09-01T11:41:33.069Z,101059.38
2018-09-01T11:44:01.629Z,101058.64
2018-09-01T11:46:30.296Z,101055.23
2018-09-01T11:48:58.829Z,101057.44
2018-09-01T11:51:27.331Z,101046.73
2018-09-01T11:53:55.817Z,101057.09
2018-09-01T11:56:24.377Z,101051.91
2018-09-01T11:58:53.061Z,101052.11
2018-09-01T12:01:21.580Z,101060.11
2018-09-01T12:03:50.277Z,101057.26
2018-09-01T12:06:18.906Z,101048.38
2018-09-01T12:08:47.471Z,101049.52
2018-09-01T12:11:15.889Z,101047.03
2018-09-01T12:13:44.473Z,101051.58
2018-09-01T12:16:13.817Z,101054.11
2018-09-01T12:18:42.280Z,101058.83
2018-09-01T12:21:10.805Z,101047.86
2018-09-01T12:23:39.209Z,101048.91
2018-09-01T12:26:07.875Z,101046.33
2018-09-01T12:28:37.081Z,101046.27
2018-09-01T12:31:05.873Z,101051.94
2018-09-01T12:33:34.613Z,101047.56
2018-09-01T12:36:03.178Z,101056.58
2018-09-01T12:38:31.643Z,101058.81
2018-09-01T12:41:00.219Z,101055.11
2018-09-01T12:43:29.059Z,101054.60
2018-09-01T12:45:57.620Z,101052.05
2018-09-01T12:48:26.274Z,101051.01
2018-09-01T12:50:55.114Z,101047.63
2018-09-01T12:53:24.319Z,101045.55
2018-09-01T12:55:53.199Z,101045.44
2018-09-01T12:58:21.774Z,101048.22
2018-09-01T13:00:50.398Z,101048.22
2018-09-01T13:03:18.877Z,101041.07
2018-09-01T13:05:47.359Z,101040.64
2018-09-01T13:08:15.934Z,101044.73
2018-09-01T13:10:44.441Z,101041.56
2018-09-01T13:13:13.004Z,101044.48
2018-09-01T13:15:41.513Z,101041.98
2018-09-01T13:18:10.155Z,101039.95
2018-09-01T13:20:38.760Z,101042.66
2018-09-01T13:23:07.419Z,101034.10
2018-09-01T13:25:35.959Z,101032.59
2018-09-01T13:28:04.405Z,101038.98
2018-09-01T13:30:33.098Z,101033.47
2018-09-01T13:33:01.583Z,101033.37
2018-09-01T13:35:30.173Z,101034.05
2018-09-01T13:37:58.779Z,101036.52
2018-09-01T13:40:28.160Z,101040.52
2018-09-01T13:42:56.606Z,101040.38
2018-09-01T13:45:25.257Z,101031.36
2018-09-01T13:47:53.803Z,101033.59
2018-09-01T13:50:22.574Z,101036.73
2018-09-01T13:52:51.119Z,101043.83
2018-09-01T13:55:19.661Z,101044.50
2018-09-01T13:57:48.138Z,101042.81
2018-09-01T14:00:16.613Z,101033.98
2018-09-01T14:02:45.330Z,101037.74
2018-09-01T14:05:13.833Z,101038.45
2018-09-01T14:07:43.413Z,101035.07
2018-09-01T14:10:11.979Z,101036.19
2018-09-01T14:12:40.608Z,101042.74
2018-09-01T14:15:09.172Z,101036.59
2018-09-01T14:17:38.035Z,101035.84
2018-09-01T14:20:06.853Z,101036.71
2018-09-01T14:22:35.399Z,101034.78
2018-09-01T14:25:04.412Z,101039.56
2018-09-01T14:27:33.187Z,101035.03
2018-09-01T14:30:01.696Z,101037.34
2018-09-01T14:32:30.292Z,101033.48
2018-09-01T14:34:58.740Z,101035.65
2018-09-01T14:37:29.316Z,101041.48
2018-09-01T14:39:58.103Z,101037.83
2018-09-01T14:45:09.930Z,101033.91
2018-09-01T14:47:38.700Z,101029.72
2018-09-01T14:50:21.989Z,101036.47
2018-09-01T14:52:50.613Z,101036.27
2018-09-01T14:55:19.219Z,101039.84
2018-09-01T14:57:47.754Z,101035.31
2018-09-01T15:00:16.449Z,101035.31
2018-09-01T15:02:45.031Z,101037.09
2018-09-01T15:05:13.549Z,101035.98
2018-09-01T15:07:42.169Z,101041.62
2018-09-01T15:10:11.153Z,101040.45
2018-09-01T15:12:39.708Z,101036.50
2018-09-01T15:15:08.329Z,101043.39
2018-09-01T15:17:36.845Z,101043.39
2018-09-01T15:20:05.629Z,101039.73
2018-09-01T15:22:34.384Z,101043.34
2018-09-01T15:25:02.870Z,101042.44
2018-09-01T15:27:31.367Z,101039.73
2018-09-01T15:29:59.816Z,101041.52
2018-09-01T15:32:28.428Z,101039.14
2018-09-01T15:34:56.926Z,101044.55
2018-09-01T15:37:25.399Z,101043.28
2018-09-01T15:39:53.991Z,101042.80
2018-09-01T15:42:22.528Z,101041.79
2018-09-01T15:44:51.277Z,101044.25
2018-09-01T15:47:19.714Z,101045.84
2018-09-01T15:49:48.195Z,101047.52
2018-09-01T15:52:16.783Z,101047.37
2018-09-01T15:54:45.401Z,101054.45
2018-09-01T15:57:14.038Z,101053.34
2018-09-01T15:59:42.640Z,101057.39
2018-09-01T16:02:11.392Z,101059.04
2018-09-01T16:04:39.976Z,101056.82
2018-09-01T16:07:08.461Z,101058.50
2018-09-01T16:09:37.023Z,101057.39
2018-09-01T16:12:05.648Z,101057.15
2018-09-01T16:14:34.215Z,101055.80
2018-09-01T16:17:02.872Z,101052.83
2018-09-01T16:19:31.415Z,101058.56
2018-09-01T16:22:05.002Z,101065.79
2018-09-01T16:24:33.918Z,101065.88
2018-09-01T16:27:02.417Z,101068.09
2018-09-01T16:29:30.859Z,101065.97
2018-09-01T16:31:59.396Z,101070.80
2018-09-01T16:34:28.014Z,101070.47
2018-09-01T16:36:56.772Z,101068.09
2018-09-01T16:39:25.431Z,101070.80
2018-09-01T16:41:53.961Z,101074.16
2018-09-01T16:44:22.663Z,101076.38
2018-09-01T16:46:51.204Z,101077.27
2018-09-01T16:49:19.811Z,101076.13
2018-09-01T16:51:48.520Z,101088.45
2018-09-01T16:54:17.077Z,101078.23
2018-09-01T16:56:45.489Z,101087.52
2018-09-01T16:59:14.183Z,101082.13
2018-09-01T17:01:42.735Z,101087.24
2018-09-01T17:04:11.534Z,101083.73
2018-09-01T17:06:39.971Z,101090.39
2018-09-01T17:09:09.116Z,101093.27
2018-09-01T17:11:37.798Z,101093.61
2018-09-01T17:14:07.260Z,101102.59
2018-09-01T17:16:36.672Z,101099.05
2018-09-01T17:19:06.028Z,101095.94
2018-09-01T17:21:34.816Z,101100.72
2018-09-01T17:24:03.674Z,101110.16
2018-09-01T17:26:32.149Z,101101.50
2018-09-01T17:29:00.685Z,101102.08
2018-09-01T17:31:29.422Z,101102.16
2018-09-01T17:33:58.045Z,101095.25
2018-09-01T17:36:26.654Z,101102.70
2018-09-01T17:38:55.225Z,101093.05
2018-09-01T17:41:23.786Z,101092.48
2018-09-01T17:43:52.234Z,101098.44
2018-09-01T17:46:20.724Z,101099.30
2018-09-01T17:48:49.209Z,101103.09
2018-09-01T17:51:17.792Z,101093.74
2018-09-01T17:53:46.253Z,101097.55
2018-09-01T17:56:14.710Z,101099.45
2018-09-01T17:58:43.114Z,101106.45
2018-09-01T18:01:11.614Z,101105.42
2018-09-01T18:03:40.048Z,101110.08
2018-09-01T18:06:08.508Z,101110.94
2018-09-01T18:08:37.842Z,101110.94
2018-09-01T18:11:06.648Z,101115.39
2018-09-01T18:13:35.197Z,101120.86
2018-09-01T18:16:03.644Z,101115.68
2018-09-01T18:18:32.145Z,101117.59
2018-09-01T18:21:00.685Z,101119.34
2018-09-01T18:23:29.188Z,101116.41
2018-09-01T18:25:57.707Z,101121.23
2018-09-01T18:28:26.189Z,101122.58
2018-09-01T18:30:54.958Z,101121.38
2018-09-01T18:33:23.403Z,101125.83
2018-09-01T18:35:52.005Z,101125.91
2018-09-01T18:38:20.492Z,101129.70
2018-09-01T18:40:49.911Z,101130.27
2018-09-01T18:43:18.575Z,101129.41
2018-09-01T18:45:47.116Z,101131.78
2018-09-01T18:48:15.852Z,101132.73
2018-09-01T18:50:44.548Z,101129.26
2018-09-01T18:53:13.108Z,101130.52
2018-09-01T18:55:41.733Z,101132.72
2018-09-01T18:58:10.477Z,101134.87
2018-09-01T19:00:39.051Z,101135.73
2018-09-01T19:03:07.928Z,101141.13
2018-09-01T19:05:36.478Z,101143.25
2018-09-01T19:08:05.088Z,101147.22
2018-09-01T19:10:33.713Z,101144.31
2018-09-01T19:13:02.458Z,101150.23
2018-09-01T19:15:30.949Z,101144.92
2018-09-01T19:18:00.602Z,101154.19
2018-09-01T19:20:29.057Z,101151.49
2018-09-01T19:22:57.763Z,101152.84
2018-09-01T19:25:26.330Z,101153.16
2018-09-01T19:27:54.979Z,101153.80
2018-09-01T19:30:23.558Z,101154.33
2018-09-01T19:32:52.073Z,101146.57
2018-09-01T19:35:20.643Z,101146.42
2018-09-01T19:37:49.066Z,101145.08
2018-09-01T19:40:17.562Z,101147.53
2018-09-01T19:42:51.172Z,101145.86
2018-09-01T19:45:19.706Z,101148.31
2018-09-01T19:47:48.972Z,101158.77
2018-09-01T19:50:17.415Z,101155.36
2018-09-01T19:52:45.974Z,101149.48
2018-09-01T19:55:14.423Z,101153.84
2018-09-01T19:57:43.726Z,101151.55
2018-09-01T20:00:12.180Z,101150.98
2018-09-01T20:02:41.205Z,101152.19
2018-09-01T20:05:09.793Z,101149.78
2018-09-01T20:07:38.229Z,101151.69
2018-09-01T20:10:06.691Z,101149.70
2018-09-01T20:12:40.255Z,101145.66
2018-09-01T20:15:08.897Z,101138.64
2018-09-01T20:17:37.455Z,101138.08
2018-09-01T20:20:06.928Z,101137.22
2018-09-01T20:22:44.823Z,101141.02
2018-09-01T20:25:13.668Z,101146.08
2018-09-01T20:27:42.207Z,101148.14
2018-09-01T20:30:10.883Z,101146.08
2018-09-01T20:32:39.692Z,101145.37
2018-09-01T20:35:13.432Z,101147.89
2018-09-01T20:37:42.050Z,101145.95
2018-09-01T20:40:10.905Z,101147.02
2018-09-01T20:42:39.576Z,101150.31
2018-09-01T20:45:08.105Z,101154.17
2018-09-01T20:47:36.723Z,101157.58
2018-09-01T20:50:05.340Z,101157.89
2018-09-01T20:52:33.997Z,101153.28
2018-09-01T20:55:02.630Z,101162.18
2018-09-01T20:57:31.284Z,101160.23
2018-09-01T20:59:59.814Z,101160.86
2018-09-01T21:02:28.366Z,101162.00
2018-09-01T21:04:56.837Z,101159.55
2018-09-01T21:07:25.344Z,101165.00
2018-09-01T21:09:53.832Z,101164.16
2018-09-01T21:12:22.318Z,101166.67
2018-09-01T21:14:51.127Z,101164.58
2018-09-01T21:17:19.728Z,101167.84
2018-09-01T21:19:48.239Z,101163.02
2018-09-01T21:22:16.752Z,101165.21
2018-09-01T21:24:45.302Z,101175.13
2018-09-01T21:27:13.841Z,101172.50
2018-09-01T21:29:42.302Z,101169.88
2018-09-01T21:32:10.844Z,101169.20
2018-09-01T21:34:39.343Z,101165.55
2018-09-01T21:37:07.870Z,101166.95
2018-09-01T21:39:36.343Z,101159.73
2018-09-01T21:42:05.012Z,101159.73
2018-09-01T21:44:33.536Z,101154.66
2018-09-01T21:47:02.146Z,101148.74
2018-09-01T21:49:30.798Z,101152.84
2018-09-01T21:51:59.466Z,101150.94
2018-09-01T21:54:27.862Z,101160.42
2018-09-01T21:56:56.732Z,101154.08
2018-09-01T21:59:25.446Z,101151.63
2018-09-01T22:01:59.315Z,101161.58
2018-09-01T22:04:32.085Z,101158.17
2018-09-01T22:07:00.621Z,101157.39
2018-09-01T22:09:29.263Z,101155.86
2018-09-01T22:11:57.737Z,101155.67
2018-09-01T22:14:26.304Z,101161.56
2018-09-01T22:16:54.828Z,101159.84
2018-09-01T22:19:23.313Z,101164.19
2018-09-01T22:21:51.989Z,101162.34
2018-09-01T22:24:20.565Z,101159.66
2018-09-01T22:26:49.250Z,101163.75
2018-09-01T22:29:17.663Z,101166.75
2018-09-01T22:31:46.385Z,101154.70
2018-09-01T22:34:14.807Z,101158.49
2018-09-01T22:36:43.316Z,101155.48
2018-09-01T22:39:11.975Z,101159.66
2018-09-01T22:41:40.600Z,101163.69
2018-09-01T22:44:09.100Z,101172.13
2018-09-01T22:46:37.538Z,101162.72
2018-09-01T22:49:06.041Z,101165.94
2018-09-01T22:51:34.468Z,101161.12
2018-09-01T22:54:02.968Z,101163.69
2018-09-01T22:56:31.425Z,101167.66
2018-09-01T22:58:59.802Z,101156.95
2018-09-01T23:01:28.215Z,101163.06
2018-09-01T23:03:56.691Z,101158.42
2018-09-01T23:06:25.311Z,101157.45
2018-09-01T23:08:53.853Z,101159.21
2018-09-01T23:11:22.445Z,101155.80
2018-09-01T23:13:50.825Z,101156.12
2018-09-01T23:16:19.351Z,101152.08
2018-09-01T23:18:47.882Z,101155.93
2018-09-01T23:21:16.415Z,101156.12
2018-09-01T23:23:44.863Z,101153.67
2018-09-01T23:26:13.493Z,101164.06
2018-09-01T23:28:42.089Z,101154.64
2018-09-01T23:31:10.754Z,101152.73
2018-09-01T23:33:39.393Z,101157.52
2018-09-01T23:36:07.865Z,101167.22
2018-09-01T23:38:36.316Z,101168.94
2018-09-01T23:41:04.919Z,101163.81
2018-09-01T23:43:33.497Z,101168.09
2018-09-01T23:46:02.028Z,101168.94
2018-09-01T23:48:30.739Z,101166.00
2018-09-01T23:50:59.251Z,101166.88
2018-09-01T23:53:27.793Z,101165.53
2018-09-01T23:55:56.386Z,101168.81
2018-09-01T23:58:24.951Z,101168.81
